sensor_id;sensor_type;location;lat;lon;timestamp;temperature;humidity
12013;DHT22;6065;48.138;16.402;2022-12-18T00:01:44;0.60;99.90
12013;DHT22;6065;48.138;16.402;2022-12-18T00:04:14;0.60;99.90
12013;DHT22;6065;48.138;16.402;2022-12-18T00:06:43;0.60;99.90
12013;DHT22;6065;48.138;16.402;2022-12-18T00:09:10;0.60;99.90
12013;DHT22;6065;48.138;16.402;2022-12-18T00:11:36;0.60;99.90
12013;DHT22;6065;48.138;16.402;2022-12-18T00:14:03;0.60;99.90
12013;DHT22;6065;48.138;16.402;2022-12-18T00:16:30;0.50;99.90
12013;DHT22;6065;48.138;16.402;2022-12-18T00:18:58;0.60;99.90
12013;DHT22;6065;48.138;16.402;2022-12-18T00:21:25;0.50;99.90
12013;DHT22;6065;48.138;16.402;2022-12-18T00:23:54;0.50;99.90
12013;DHT22;6065;48.138;16.402;2022-12-18T00:26:21;0.50;99.90
12013;DHT22;6065;48.138;16.402;2022-12-18T00:28:48;0.50;99.90
12013;DHT22;6065;48.138;16.402;2022-12-18T00:31:16;0.50;99.90
12013;DHT22;6065;48.138;16.402;2022-12-18T00:33:43;0.50;99.90
12013;DHT22;6065;48.138;16.402;2022-12-18T00:36:12;0.50;99.90
12013;DHT22;6065;48.138;16.402;2022-12-18T00:38:39;0.50;99.90
12013;DHT22;6065;48.138;16.402;2022-12-18T00:41:07;0.50;99.90
12013;DHT22;6065;48.138;16.402;2022-12-18T00:43:34;0.40;99.90
12013;DHT22;6065;48.138;16.402;2022-12-18T00:46:00;0.40;99.90
12013;DHT22;6065;48.138;16.402;2022-12-18T00:48:27;0.50;99.90
12013;DHT22;6065;48.138;16.402;2022-12-18T00:50:54;0.40;99.90
12013;DHT22;6065;48.138;16.402;2022-12-18T00:53:21;0.40;99.90
12013;DHT22;6065;48.138;16.402;2022-12-18T00:55:47;0.40;99.90
12013;DHT22;6065;48.138;16.402;2022-12-18T00:58:16;0.40;99.90
12013;DHT22;6065;48.138;16.402;2022-12-18T01:00:42;0.30;99.90
12013;DHT22;6065;48.138;16.402;2022-12-18T01:03:10;0.30;99.90
12013;DHT22;6065;48.138;16.402;2022-12-18T01:05:39;0.30;99.90
12013;DHT22;6065;48.138;16.402;2022-12-18T01:08:06;0.30;99.90
12013;DHT22;6065;48.138;16.402;2022-12-18T01:10:33;0.20;99.90
12013;DHT22;6065;48.138;16.402;2022-12-18T01:12:59;0.20;99.90
12013;DHT22;6065;48.138;16.402;2022-12-18T01:15:27;0.20;99.90
12013;DHT22;6065;48.138;16.402;2022-12-18T01:17:54;0.10;99.90
12013;DHT22;6065;48.138;16.402;2022-12-18T01:20:21;0.10;99.90
12013;DHT22;6065;48.138;16.402;2022-12-18T01:22:47;0.10;99.90
12013;DHT22;6065;48.138;16.402;2022-12-18T01:25:14;0.10;99.90
12013;DHT22;6065;48.138;16.402;2022-12-18T01:27:50;0.00;99.90
12013;DHT22;6065;48.138;16.402;2022-12-18T01:30:17;0.00;99.90
12013;DHT22;6065;48.138;16.402;2022-12-18T01:32:45;0.00;99.90
12013;DHT22;6065;48.138;16.402;2022-12-18T01:35:13;0.00;99.90
12013;DHT22;6065;48.138;16.402;2022-12-18T01:37:39;0.00;99.90
12013;DHT22;6065;48.138;16.402;2022-12-18T01:40:07;0.00;99.90
12013;DHT22;6065;48.138;16.402;2022-12-18T01:42:33;0.00;99.90
12013;DHT22;6065;48.138;16.402;2022-12-18T01:45:02;-0.10;99.90
12013;DHT22;6065;48.138;16.402;2022-12-18T01:47:30;-0.10;99.90
12013;DHT22;6065;48.138;16.402;2022-12-18T01:50:00;-0.10;99.90
12013;DHT22;6065;48.138;16.402;2022-12-18T01:52:28;-0.10;99.90
12013;DHT22;6065;48.138;16.402;2022-12-18T01:54:55;-0.10;99.90
12013;DHT22;6065;48.138;16.402;2022-12-18T01:57:23;-0.20;99.90
12013;DHT22;6065;48.138;16.402;2022-12-18T01:59:51;-0.20;99.90
12013;DHT22;6065;48.138;16.402;2022-12-18T02:02:18;-0.20;99.90
12013;DHT22;6065;48.138;16.402;2022-12-18T02:04:45;-0.30;99.90
12013;DHT22;6065;48.138;16.402;2022-12-18T02:07:14;-0.20;99.90
12013;DHT22;6065;48.138;16.402;2022-12-18T02:09:44;-0.30;99.90
12013;DHT22;6065;48.138;16.402;2022-12-18T02:12:13;-0.30;99.90
12013;DHT22;6065;48.138;16.402;2022-12-18T02:14:44;-0.30;99.90
12013;DHT22;6065;48.138;16.402;2022-12-18T02:17:13;-0.30;99.90
12013;DHT22;6065;48.138;16.402;2022-12-18T02:19:44;-0.20;99.90
12013;DHT22;6065;48.138;16.402;2022-12-18T02:22:24;-0.30;99.90
12013;DHT22;6065;48.138;16.402;2022-12-18T02:24:55;-0.40;99.90
12013;DHT22;6065;48.138;16.402;2022-12-18T02:27:26;-0.40;99.90
12013;DHT22;6065;48.138;16.402;2022-12-18T02:29:53;-0.40;99.90
12013;DHT22;6065;48.138;16.402;2022-12-18T02:32:24;-0.20;99.90
12013;DHT22;6065;48.138;16.402;2022-12-18T02:34:52;-0.40;99.90
12013;DHT22;6065;48.138;16.402;2022-12-18T02:37:19;-0.40;99.90
12013;DHT22;6065;48.138;16.402;2022-12-18T02:39:47;-0.50;99.90
12013;DHT22;6065;48.138;16.402;2022-12-18T02:42:15;-0.50;99.90
12013;DHT22;6065;48.138;16.402;2022-12-18T02:44:44;-0.50;99.90
12013;DHT22;6065;48.138;16.402;2022-12-18T02:47:12;-0.50;99.90
12013;DHT22;6065;48.138;16.402;2022-12-18T02:49:40;-0.50;99.90
12013;DHT22;6065;48.138;16.402;2022-12-18T02:52:12;-0.50;99.90
12013;DHT22;6065;48.138;16.402;2022-12-18T02:54:47;-0.60;99.90
12013;DHT22;6065;48.138;16.402;2022-12-18T02:57:19;-0.60;99.90
12013;DHT22;6065;48.138;16.402;2022-12-18T02:59:53;-0.60;99.90
12013;DHT22;6065;48.138;16.402;2022-12-18T03:02:23;-0.70;99.90
12013;DHT22;6065;48.138;16.402;2022-12-18T03:04:53;-0.80;99.90
12013;DHT22;6065;48.138;16.402;2022-12-18T03:07:25;-0.80;99.90
12013;DHT22;6065;48.138;16.402;2022-12-18T03:09:52;-0.80;99.90
12013;DHT22;6065;48.138;16.402;2022-12-18T03:12:20;-0.80;99.90
12013;DHT22;6065;48.138;16.402;2022-12-18T03:14:53;-0.80;99.90
12013;DHT22;6065;48.138;16.402;2022-12-18T03:17:22;-0.90;99.90
12013;DHT22;6065;48.138;16.402;2022-12-18T03:19:49;-0.90;99.90
12013;DHT22;6065;48.138;16.402;2022-12-18T03:22:18;-0.90;99.90
12013;DHT22;6065;48.138;16.402;2022-12-18T03:24:48;-0.90;99.90
12013;DHT22;6065;48.138;16.402;2022-12-18T03:27:15;-0.90;99.90
12013;DHT22;6065;48.138;16.402;2022-12-18T03:29:44;-0.90;99.90
12013;DHT22;6065;48.138;16.402;2022-12-18T03:32:14;-0.90;99.90
12013;DHT22;6065;48.138;16.402;2022-12-18T03:34:42;-0.90;99.90
12013;DHT22;6065;48.138;16.402;2022-12-18T03:37:10;-0.90;99.90
12013;DHT22;6065;48.138;16.402;2022-12-18T03:39:37;-1.00;99.90
12013;DHT22;6065;48.138;16.402;2022-12-18T03:42:04;-1.00;99.90
12013;DHT22;6065;48.138;16.402;2022-12-18T03:44:34;-1.00;99.90
12013;DHT22;6065;48.138;16.402;2022-12-18T03:47:04;-1.00;99.90
12013;DHT22;6065;48.138;16.402;2022-12-18T03:49:35;-1.00;99.90
12013;DHT22;6065;48.138;16.402;2022-12-18T03:52:04;-1.00;99.90
12013;DHT22;6065;48.138;16.402;2022-12-18T03:54:32;-1.10;99.90
12013;DHT22;6065;48.138;16.402;2022-12-18T03:57:01;-1.10;99.90
12013;DHT22;6065;48.138;16.402;2022-12-18T03:59:29;-1.10;99.90
12013;DHT22;6065;48.138;16.402;2022-12-18T04:01:56;-1.00;99.90
12013;DHT22;6065;48.138;16.402;2022-12-18T04:04:24;-1.10;99.90
12013;DHT22;6065;48.138;16.402;2022-12-18T04:06:53;-1.10;99.90
12013;DHT22;6065;48.138;16.402;2022-12-18T04:09:20;-1.20;99.90
12013;DHT22;6065;48.138;16.402;2022-12-18T04:11:47;-1.30;99.90
12013;DHT22;6065;48.138;16.402;2022-12-18T04:14:14;-1.40;99.90
12013;DHT22;6065;48.138;16.402;2022-12-18T04:16:41;-1.50;99.90
12013;DHT22;6065;48.138;16.402;2022-12-18T04:19:07;-1.50;99.90
12013;DHT22;6065;48.138;16.402;2022-12-18T04:21:34;-1.50;99.90
12013;DHT22;6065;48.138;16.402;2022-12-18T04:24:02;-1.50;99.90
12013;DHT22;6065;48.138;16.402;2022-12-18T04:26:29;-1.50;99.90
12013;DHT22;6065;48.138;16.402;2022-12-18T04:28:55;-1.40;99.90
12013;DHT22;6065;48.138;16.402;2022-12-18T04:31:22;-1.40;99.90
12013;DHT22;6065;48.138;16.402;2022-12-18T04:33:49;-1.30;99.90
12013;DHT22;6065;48.138;16.402;2022-12-18T04:36:15;-1.40;99.90
12013;DHT22;6065;48.138;16.402;2022-12-18T04:38:42;-1.50;99.90
12013;DHT22;6065;48.138;16.402;2022-12-18T04:41:10;-1.40;99.90
12013;DHT22;6065;48.138;16.402;2022-12-18T04:43:37;-1.50;99.90
12013;DHT22;6065;48.138;16.402;2022-12-18T04:46:04;-1.60;99.90
12013;DHT22;6065;48.138;16.402;2022-12-18T04:48:31;-1.60;99.90
12013;DHT22;6065;48.138;16.402;2022-12-18T04:50:57;-1.60;99.90
12013;DHT22;6065;48.138;16.402;2022-12-18T04:53:24;-1.50;99.90
12013;DHT22;6065;48.138;16.402;2022-12-18T04:56:01;-1.50;99.90
12013;DHT22;6065;48.138;16.402;2022-12-18T04:58:29;-1.50;99.90
12013;DHT22;6065;48.138;16.402;2022-12-18T05:00:56;-1.50;99.90
12013;DHT22;6065;48.138;16.402;2022-12-18T05:03:23;-1.60;99.90
12013;DHT22;6065;48.138;16.402;2022-12-18T05:05:49;-1.80;99.90
12013;DHT22;6065;48.138;16.402;2022-12-18T05:08:16;-1.80;99.90
12013;DHT22;6065;48.138;16.402;2022-12-18T05:10:43;-1.80;99.90
12013;DHT22;6065;48.138;16.402;2022-12-18T05:13:10;-1.80;99.90
12013;DHT22;6065;48.138;16.402;2022-12-18T05:15:38;-1.80;99.90
12013;DHT22;6065;48.138;16.402;2022-12-18T05:18:04;-1.70;99.90
12013;DHT22;6065;48.138;16.402;2022-12-18T05:20:32;-1.70;99.90
12013;DHT22;6065;48.138;16.402;2022-12-18T05:22:58;-1.70;99.90
12013;DHT22;6065;48.138;16.402;2022-12-18T05:25:25;-1.70;99.90
12013;DHT22;6065;48.138;16.402;2022-12-18T05:27:52;-1.70;99.90
12013;DHT22;6065;48.138;16.402;2022-12-18T05:30:18;-1.70;99.90
12013;DHT22;6065;48.138;16.402;2022-12-18T05:32:46;-1.70;99.90
12013;DHT22;6065;48.138;16.402;2022-12-18T05:35:13;-1.90;99.90
12013;DHT22;6065;48.138;16.402;2022-12-18T05:37:40;-2.00;99.90
12013;DHT22;6065;48.138;16.402;2022-12-18T05:40:07;-2.00;99.90
12013;DHT22;6065;48.138;16.402;2022-12-18T05:42:34;-2.00;99.90
12013;DHT22;6065;48.138;16.402;2022-12-18T05:45:00;-2.00;99.90
12013;DHT22;6065;48.138;16.402;2022-12-18T05:47:27;-2.00;99.90
12013;DHT22;6065;48.138;16.402;2022-12-18T05:49:55;-1.90;99.90
12013;DHT22;6065;48.138;16.402;2022-12-18T05:52:22;-1.90;99.90
12013;DHT22;6065;48.138;16.402;2022-12-18T05:54:49;-2.00;99.90
12013;DHT22;6065;48.138;16.402;2022-12-18T05:57:15;-2.10;99.90
12013;DHT22;6065;48.138;16.402;2022-12-18T05:59:42;-2.00;99.90
12013;DHT22;6065;48.138;16.402;2022-12-18T06:02:09;-2.10;99.90
12013;DHT22;6065;48.138;16.402;2022-12-18T06:04:35;-2.00;99.90
12013;DHT22;6065;48.138;16.402;2022-12-18T06:07:03;-2.00;99.90
12013;DHT22;6065;48.138;16.402;2022-12-18T06:09:30;-2.10;99.90
12013;DHT22;6065;48.138;16.402;2022-12-18T06:11:57;-2.20;99.90
12013;DHT22;6065;48.138;16.402;2022-12-18T06:14:24;-2.20;99.90
12013;DHT22;6065;48.138;16.402;2022-12-18T06:16:50;-2.30;99.90
12013;DHT22;6065;48.138;16.402;2022-12-18T06:19:17;-2.30;99.90
12013;DHT22;6065;48.138;16.402;2022-12-18T06:21:45;-2.40;99.90
12013;DHT22;6065;48.138;16.402;2022-12-18T06:24:13;-2.40;99.90
12013;DHT22;6065;48.138;16.402;2022-12-18T06:26:40;-2.30;99.90
12013;DHT22;6065;48.138;16.402;2022-12-18T06:29:06;-2.30;99.90
12013;DHT22;6065;48.138;16.402;2022-12-18T06:31:33;-2.30;99.90
12013;DHT22;6065;48.138;16.402;2022-12-18T06:34:01;-2.30;99.90
12013;DHT22;6065;48.138;16.402;2022-12-18T06:36:28;-2.30;99.90
12013;DHT22;6065;48.138;16.402;2022-12-18T06:38:54;-2.30;99.90
12013;DHT22;6065;48.138;16.402;2022-12-18T06:41:26;-2.30;99.90
12013;DHT22;6065;48.138;16.402;2022-12-18T06:43:53;-2.40;99.90
12013;DHT22;6065;48.138;16.402;2022-12-18T06:46:20;-2.30;99.90
12013;DHT22;6065;48.138;16.402;2022-12-18T06:48:47;-2.30;99.90
12013;DHT22;6065;48.138;16.402;2022-12-18T06:51:16;-2.30;99.90
12013;DHT22;6065;48.138;16.402;2022-12-18T06:53:42;-2.40;99.90
12013;DHT22;6065;48.138;16.402;2022-12-18T06:56:09;-2.40;99.90
12013;DHT22;6065;48.138;16.402;2022-12-18T06:58:37;-2.40;99.90
12013;DHT22;6065;48.138;16.402;2022-12-18T07:01:05;-2.50;99.90
12013;DHT22;6065;48.138;16.402;2022-12-18T07:03:32;-2.60;99.90
12013;DHT22;6065;48.138;16.402;2022-12-18T07:05:58;-2.60;99.90
12013;DHT22;6065;48.138;16.402;2022-12-18T07:08:25;-2.70;99.90
12013;DHT22;6065;48.138;16.402;2022-12-18T07:10:52;-2.60;99.90
12013;DHT22;6065;48.138;16.402;2022-12-18T07:13:19;-2.60;99.90
12013;DHT22;6065;48.138;16.402;2022-12-18T07:15:47;-2.60;99.90
12013;DHT22;6065;48.138;16.402;2022-12-18T07:18:14;-2.60;99.90
12013;DHT22;6065;48.138;16.402;2022-12-18T07:20:40;-2.60;99.90
12013;DHT22;6065;48.138;16.402;2022-12-18T07:23:07;-2.60;99.90
12013;DHT22;6065;48.138;16.402;2022-12-18T07:25:34;-2.60;99.90
12013;DHT22;6065;48.138;16.402;2022-12-18T07:28:01;-2.60;99.90
12013;DHT22;6065;48.138;16.402;2022-12-18T07:30:27;-2.70;99.90
12013;DHT22;6065;48.138;16.402;2022-12-18T07:32:55;-2.70;99.90
12013;DHT22;6065;48.138;16.402;2022-12-18T07:35:22;-2.70;99.90
12013;DHT22;6065;48.138;16.402;2022-12-18T07:37:49;-2.70;99.90
12013;DHT22;6065;48.138;16.402;2022-12-18T07:40:15;-2.70;99.90
12013;DHT22;6065;48.138;16.402;2022-12-18T07:42:42;-2.70;99.90
12013;DHT22;6065;48.138;16.402;2022-12-18T07:45:09;-2.70;99.90
12013;DHT22;6065;48.138;16.402;2022-12-18T07:47:36;-2.70;99.90
12013;DHT22;6065;48.138;16.402;2022-12-18T07:50:05;-2.70;99.90
12013;DHT22;6065;48.138;16.402;2022-12-18T07:52:32;-2.70;99.90
12013;DHT22;6065;48.138;16.402;2022-12-18T07:54:58;-2.70;99.90
12013;DHT22;6065;48.138;16.402;2022-12-18T07:57:25;-2.70;99.90
12013;DHT22;6065;48.138;16.402;2022-12-18T07:59:52;-2.70;99.90
12013;DHT22;6065;48.138;16.402;2022-12-18T08:02:18;-2.70;99.90
12013;DHT22;6065;48.138;16.402;2022-12-18T08:04:45;-2.70;99.90
12013;DHT22;6065;48.138;16.402;2022-12-18T08:07:14;-2.70;99.90
12013;DHT22;6065;48.138;16.402;2022-12-18T08:09:43;-2.70;99.90
12013;DHT22;6065;48.138;16.402;2022-12-18T08:12:10;-2.80;99.90
12013;DHT22;6065;48.138;16.402;2022-12-18T08:14:37;-2.80;99.90
12013;DHT22;6065;48.138;16.402;2022-12-18T08:17:04;-2.80;99.90
12013;DHT22;6065;48.138;16.402;2022-12-18T08:19:30;-2.70;99.90
12013;DHT22;6065;48.138;16.402;2022-12-18T08:21:57;-2.70;99.90
12013;DHT22;6065;48.138;16.402;2022-12-18T08:24:25;-2.70;99.90
12013;DHT22;6065;48.138;16.402;2022-12-18T08:26:52;-2.70;99.90
12013;DHT22;6065;48.138;16.402;2022-12-18T08:29:19;-2.60;99.90
12013;DHT22;6065;48.138;16.402;2022-12-18T08:31:45;-2.50;99.90
12013;DHT22;6065;48.138;16.402;2022-12-18T08:34:12;-2.50;99.90
12013;DHT22;6065;48.138;16.402;2022-12-18T08:36:40;-2.50;99.90
12013;DHT22;6065;48.138;16.402;2022-12-18T08:39:06;-2.50;99.90
12013;DHT22;6065;48.138;16.402;2022-12-18T08:41:34;-2.50;99.90
12013;DHT22;6065;48.138;16.402;2022-12-18T08:44:01;-2.50;99.90
12013;DHT22;6065;48.138;16.402;2022-12-18T08:46:45;-2.50;99.90
12013;DHT22;6065;48.138;16.402;2022-12-18T08:49:12;-2.40;99.90
12013;DHT22;6065;48.138;16.402;2022-12-18T08:51:38;-2.40;99.90
12013;DHT22;6065;48.138;16.402;2022-12-18T08:54:06;-2.30;99.90
12013;DHT22;6065;48.138;16.402;2022-12-18T08:56:34;-2.20;99.90
12013;DHT22;6065;48.138;16.402;2022-12-18T08:59:01;-2.20;99.90
12013;DHT22;6065;48.138;16.402;2022-12-18T09:01:27;-2.20;99.90
12013;DHT22;6065;48.138;16.402;2022-12-18T09:03:54;-2.20;99.90
12013;DHT22;6065;48.138;16.402;2022-12-18T09:06:21;-2.20;99.90
12013;DHT22;6065;48.138;16.402;2022-12-18T09:08:49;-2.20;99.90
12013;DHT22;6065;48.138;16.402;2022-12-18T09:11:18;-2.10;99.90
12013;DHT22;6065;48.138;16.402;2022-12-18T09:13:47;-2.10;99.90
12013;DHT22;6065;48.138;16.402;2022-12-18T09:16:14;-2.20;99.90
12013;DHT22;6065;48.138;16.402;2022-12-18T09:18:41;-2.10;99.90
12013;DHT22;6065;48.138;16.402;2022-12-18T09:21:08;-2.10;99.90
12013;DHT22;6065;48.138;16.402;2022-12-18T09:23:35;-2.10;99.90
12013;DHT22;6065;48.138;16.402;2022-12-18T09:26:02;-2.00;99.90
12013;DHT22;6065;48.138;16.402;2022-12-18T09:28:29;-2.00;99.90
12013;DHT22;6065;48.138;16.402;2022-12-18T09:30:57;-1.90;99.90
12013;DHT22;6065;48.138;16.402;2022-12-18T09:33:24;-1.80;99.90
12013;DHT22;6065;48.138;16.402;2022-12-18T09:35:51;-1.80;99.90
12013;DHT22;6065;48.138;16.402;2022-12-18T09:38:18;-1.80;99.90
12013;DHT22;6065;48.138;16.402;2022-12-18T09:40:45;-1.80;99.90
12013;DHT22;6065;48.138;16.402;2022-12-18T09:43:13;-1.80;99.90
12013;DHT22;6065;48.138;16.402;2022-12-18T09:45:42;-1.80;99.90
12013;DHT22;6065;48.138;16.402;2022-12-18T09:48:11;-1.90;99.90
12013;DHT22;6065;48.138;16.402;2022-12-18T09:50:42;-1.90;99.90
12013;DHT22;6065;48.138;16.402;2022-12-18T09:53:10;-1.90;99.90
12013;DHT22;6065;48.138;16.402;2022-12-18T09:55:39;-1.90;99.90
12013;DHT22;6065;48.138;16.402;2022-12-18T09:58:10;-1.90;99.90
12013;DHT22;6065;48.138;16.402;2022-12-18T10:00:38;-1.80;99.90
12013;DHT22;6065;48.138;16.402;2022-12-18T10:03:08;-1.80;99.90
12013;DHT22;6065;48.138;16.402;2022-12-18T10:05:37;-1.80;99.90
12013;DHT22;6065;48.138;16.402;2022-12-18T10:08:08;-1.80;99.90
12013;DHT22;6065;48.138;16.402;2022-12-18T10:10:38;-1.80;99.90
12013;DHT22;6065;48.138;16.402;2022-12-18T10:13:12;-1.60;99.90
12013;DHT22;6065;48.138;16.402;2022-12-18T10:15:43;-1.70;99.90
12013;DHT22;6065;48.138;16.402;2022-12-18T10:18:15;-1.60;99.90
12013;DHT22;6065;48.138;16.402;2022-12-18T10:20:46;-1.70;99.90
12013;DHT22;6065;48.138;16.402;2022-12-18T10:23:15;-1.70;99.90
12013;DHT22;6065;48.138;16.402;2022-12-18T10:25:48;-1.70;99.90
12013;DHT22;6065;48.138;16.402;2022-12-18T10:28:16;-1.70;99.90
12013;DHT22;6065;48.138;16.402;2022-12-18T10:30:44;-1.60;99.90
12013;DHT22;6065;48.138;16.402;2022-12-18T10:33:11;-1.70;99.90
12013;DHT22;6065;48.138;16.402;2022-12-18T10:35:38;-1.60;99.90
12013;DHT22;6065;48.138;16.402;2022-12-18T10:38:20;-1.60;99.90
12013;DHT22;6065;48.138;16.402;2022-12-18T10:40:47;-1.60;99.90
12013;DHT22;6065;48.138;16.402;2022-12-18T10:43:15;-1.60;99.90
12013;DHT22;6065;48.138;16.402;2022-12-18T10:45:42;-1.60;99.90
12013;DHT22;6065;48.138;16.402;2022-12-18T10:48:19;-1.50;99.90
12013;DHT22;6065;48.138;16.402;2022-12-18T10:50:46;-1.50;99.90
12013;DHT22;6065;48.138;16.402;2022-12-18T10:53:16;-1.50;99.90
12013;DHT22;6065;48.138;16.402;2022-12-18T10:55:44;-1.50;99.90
12013;DHT22;6065;48.138;16.402;2022-12-18T10:58:16;-1.40;99.90
12013;DHT22;6065;48.138;16.402;2022-12-18T11:00:43;-1.40;99.90
12013;DHT22;6065;48.138;16.402;2022-12-18T11:05:52;-1.40;99.90
12013;DHT22;6065;48.138;16.402;2022-12-18T11:08:28;-1.40;99.90
12013;DHT22;6065;48.138;16.402;2022-12-18T11:10:55;-1.50;99.90
12013;DHT22;6065;48.138;16.402;2022-12-18T11:13:22;-1.40;99.90
12013;DHT22;6065;48.138;16.402;2022-12-18T11:15:49;-1.50;99.90
12013;DHT22;6065;48.138;16.402;2022-12-18T11:18:17;-1.50;99.90
12013;DHT22;6065;48.138;16.402;2022-12-18T11:20:50;-1.50;99.90
12013;DHT22;6065;48.138;16.402;2022-12-18T11:23:17;-1.50;99.90
12013;DHT22;6065;48.138;16.402;2022-12-18T11:25:51;-1.50;99.90
12013;DHT22;6065;48.138;16.402;2022-12-18T11:28:34;-1.40;99.90
12013;DHT22;6065;48.138;16.402;2022-12-18T11:31:09;-1.40;99.90
12013;DHT22;6065;48.138;16.402;2022-12-18T11:33:39;-1.40;99.90
12013;DHT22;6065;48.138;16.402;2022-12-18T11:36:08;-1.30;99.90
12013;DHT22;6065;48.138;16.402;2022-12-18T11:38:36;-1.20;99.90
12013;DHT22;6065;48.138;16.402;2022-12-18T11:41:05;-1.10;99.90
12013;DHT22;6065;48.138;16.402;2022-12-18T11:43:34;-1.00;99.90
12013;DHT22;6065;48.138;16.402;2022-12-18T11:46:02;-0.90;99.90
12013;DHT22;6065;48.138;16.402;2022-12-18T11:48:32;-0.90;99.90
12013;DHT22;6065;48.138;16.402;2022-12-18T11:50:59;-0.90;99.90
12013;DHT22;6065;48.138;16.402;2022-12-18T11:53:26;-0.90;99.90
12013;DHT22;6065;48.138;16.402;2022-12-18T11:56:00;-1.00;99.90
12013;DHT22;6065;48.138;16.402;2022-12-18T11:58:35;-1.00;99.90
12013;DHT22;6065;48.138;16.402;2022-12-18T12:01:11;-1.10;99.90
12013;DHT22;6065;48.138;16.402;2022-12-18T12:03:47;-1.00;99.90
12013;DHT22;6065;48.138;16.402;2022-12-18T12:06:19;-1.00;99.90
12013;DHT22;6065;48.138;16.402;2022-12-18T12:08:58;-1.00;99.90
12013;DHT22;6065;48.138;16.402;2022-12-18T12:11:28;-1.10;99.90
12013;DHT22;6065;48.138;16.402;2022-12-18T12:14:03;-1.10;99.90
12013;DHT22;6065;48.138;16.402;2022-12-18T12:16:34;-1.10;99.90
12013;DHT22;6065;48.138;16.402;2022-12-18T12:19:07;-1.10;99.90
12013;DHT22;6065;48.138;16.402;2022-12-18T12:21:39;-1.20;99.90
12013;DHT22;6065;48.138;16.402;2022-12-18T12:24:11;-1.20;99.90
12013;DHT22;6065;48.138;16.402;2022-12-18T12:26:45;-1.20;99.90
12013;DHT22;6065;48.138;16.402;2022-12-18T12:29:20;-1.20;99.90
12013;DHT22;6065;48.138;16.402;2022-12-18T12:31:55;-1.20;99.90
12013;DHT22;6065;48.138;16.402;2022-12-18T12:34:25;-1.10;99.90
12013;DHT22;6065;48.138;16.402;2022-12-18T12:36:57;-1.20;99.90
12013;DHT22;6065;48.138;16.402;2022-12-18T12:39:28;-1.10;99.90
12013;DHT22;6065;48.138;16.402;2022-12-18T12:41:56;-1.10;99.90
12013;DHT22;6065;48.138;16.402;2022-12-18T12:44:43;-1.10;99.90
12013;DHT22;6065;48.138;16.402;2022-12-18T12:47:11;-1.20;99.90
12013;DHT22;6065;48.138;16.402;2022-12-18T12:49:40;-1.20;99.90
12013;DHT22;6065;48.138;16.402;2022-12-18T12:52:14;-1.20;99.90
12013;DHT22;6065;48.138;16.402;2022-12-18T12:54:41;-1.20;99.90
12013;DHT22;6065;48.138;16.402;2022-12-18T12:57:09;-1.20;99.90
12013;DHT22;6065;48.138;16.402;2022-12-18T12:59:41;-1.10;99.90
12013;DHT22;6065;48.138;16.402;2022-12-18T13:02:14;-1.10;99.90
12013;DHT22;6065;48.138;16.402;2022-12-18T13:04:45;-1.10;99.90
12013;DHT22;6065;48.138;16.402;2022-12-18T13:07:14;-1.10;99.90
12013;DHT22;6065;48.138;16.402;2022-12-18T13:12:23;-1.10;99.90
12013;DHT22;6065;48.138;16.402;2022-12-18T13:15:11;-1.00;99.90
12013;DHT22;6065;48.138;16.402;2022-12-18T13:17:40;-1.20;99.90
12013;DHT22;6065;48.138;16.402;2022-12-18T13:20:10;-1.20;99.90
12013;DHT22;6065;48.138;16.402;2022-12-18T13:22:38;-1.20;99.90
12013;DHT22;6065;48.138;16.402;2022-12-18T13:28:00;-1.20;99.90
12013;DHT22;6065;48.138;16.402;2022-12-18T13:30:41;-1.10;99.90
12013;DHT22;6065;48.138;16.402;2022-12-18T13:33:34;-0.90;99.90
12013;DHT22;6065;48.138;16.402;2022-12-18T13:36:08;-1.10;99.90
12013;DHT22;6065;48.138;16.402;2022-12-18T13:38:36;-1.10;99.90
12013;DHT22;6065;48.138;16.402;2022-12-18T13:41:04;-1.20;99.90
12013;DHT22;6065;48.138;16.402;2022-12-18T13:43:47;-1.10;99.90
12013;DHT22;6065;48.138;16.402;2022-12-18T13:46:19;-1.10;99.90
12013;DHT22;6065;48.138;16.402;2022-12-18T13:48:55;-1.10;99.90
12013;DHT22;6065;48.138;16.402;2022-12-18T13:51:22;-1.10;99.90
12013;DHT22;6065;48.138;16.402;2022-12-18T13:53:50;-1.10;99.90
12013;DHT22;6065;48.138;16.402;2022-12-18T13:56:18;-1.10;99.90
12013;DHT22;6065;48.138;16.402;2022-12-18T13:58:45;-1.10;99.90
12013;DHT22;6065;48.138;16.402;2022-12-18T14:04:10;-1.10;99.90
12013;DHT22;6065;48.138;16.402;2022-12-18T14:06:37;-1.10;99.90
12013;DHT22;6065;48.138;16.402;2022-12-18T14:09:04;-1.10;99.90
12013;DHT22;6065;48.138;16.402;2022-12-18T14:11:31;-1.10;99.90
12013;DHT22;6065;48.138;16.402;2022-12-18T14:13:58;-1.10;99.90
12013;DHT22;6065;48.138;16.402;2022-12-18T14:16:26;-1.10;99.90
12013;DHT22;6065;48.138;16.402;2022-12-18T14:18:56;-1.20;99.90
12013;DHT22;6065;48.138;16.402;2022-12-18T14:21:26;-1.20;99.90
12013;DHT22;6065;48.138;16.402;2022-12-18T14:24:05;-1.20;99.90
12013;DHT22;6065;48.138;16.402;2022-12-18T14:26:33;-1.20;99.90
12013;DHT22;6065;48.138;16.402;2022-12-18T14:29:19;-1.20;99.90
12013;DHT22;6065;48.138;16.402;2022-12-18T14:31:45;-1.20;99.90
12013;DHT22;6065;48.138;16.402;2022-12-18T14:34:14;-1.20;99.90
12013;DHT22;6065;48.138;16.402;2022-12-18T14:36:44;-1.30;99.90
12013;DHT22;6065;48.138;16.402;2022-12-18T14:39:17;-1.20;99.90
12013;DHT22;6065;48.138;16.402;2022-12-18T14:41:44;-1.10;99.90
12013;DHT22;6065;48.138;16.402;2022-12-18T14:44:12;-1.10;99.90
12013;DHT22;6065;48.138;16.402;2022-12-18T14:46:39;-1.20;99.90
12013;DHT22;6065;48.138;16.402;2022-12-18T14:49:17;-1.20;99.90
12013;DHT22;6065;48.138;16.402;2022-12-18T14:51:48;-1.20;99.90
12013;DHT22;6065;48.138;16.402;2022-12-18T14:54:16;-1.20;99.90
12013;DHT22;6065;48.138;16.402;2022-12-18T14:56:44;-1.20;99.90
12013;DHT22;6065;48.138;16.402;2022-12-18T14:59:13;-1.30;99.90
12013;DHT22;6065;48.138;16.402;2022-12-18T15:01:44;-1.30;99.90
12013;DHT22;6065;48.138;16.402;2022-12-18T15:04:23;-1.30;99.90
12013;DHT22;6065;48.138;16.402;2022-12-18T15:07:03;-1.30;99.90
12013;DHT22;6065;48.138;16.402;2022-12-18T15:09:30;-1.20;99.90
12013;DHT22;6065;48.138;16.402;2022-12-18T15:11:58;-1.20;99.90
12013;DHT22;6065;48.138;16.402;2022-12-18T15:14:32;-1.10;99.90
12013;DHT22;6065;48.138;16.402;2022-12-18T15:17:00;-1.20;99.90
12013;DHT22;6065;48.138;16.402;2022-12-18T15:19:31;-1.20;99.90
12013;DHT22;6065;48.138;16.402;2022-12-18T15:21:58;-1.20;99.90
12013;DHT22;6065;48.138;16.402;2022-12-18T15:24:29;-1.20;99.90
12013;DHT22;6065;48.138;16.402;2022-12-18T15:26:56;-1.20;99.90
12013;DHT22;6065;48.138;16.402;2022-12-18T15:29:23;-1.20;99.90
12013;DHT22;6065;48.138;16.402;2022-12-18T15:32:03;-1.20;99.90
12013;DHT22;6065;48.138;16.402;2022-12-18T15:34:31;-1.20;99.90
12013;DHT22;6065;48.138;16.402;2022-12-18T15:36:59;-1.20;99.90
12013;DHT22;6065;48.138;16.402;2022-12-18T15:39:25;-1.20;99.90
12013;DHT22;6065;48.138;16.402;2022-12-18T15:41:53;-1.20;99.90
12013;DHT22;6065;48.138;16.402;2022-12-18T15:44:38;-1.20;99.90
12013;DHT22;6065;48.138;16.402;2022-12-18T15:47:07;-1.20;99.90
12013;DHT22;6065;48.138;16.402;2022-12-18T15:49:36;-1.10;99.90
12013;DHT22;6065;48.138;16.402;2022-12-18T15:52:02;-1.20;99.90
12013;DHT22;6065;48.138;16.402;2022-12-18T15:54:29;-1.20;99.90